createdAt,value
2022-08-05T00:03:54.422Z,2.60
2022-08-05T00:08:01.245Z,2.40
2022-08-05T00:12:03.825Z,2.20
2022-08-05T00:16:09.067Z,2.37
2022-08-05T00:20:11.300Z,2.17
2022-08-05T00:24:19.009Z,2.10
2022-08-05T00:28:29.800Z,2.70
2022-08-05T00:32:33.130Z,2.23
2022-08-05T00:37:10.726Z,2.60
2022-08-05T00:41:00.400Z,2.13
2022-08-05T00:45:03.281Z,2.10
2022-08-05T00:49:06.361Z,2.47
2022-08-05T00:53:45.092Z,2.20
2022-08-05T00:57:31.920Z,2.20
2022-08-05T01:01:52.930Z,1.90
2022-08-05T01:05:55.898Z,2.70
2022-08-05T01:09:58.138Z,2.37
2022-08-05T01:14:08.548Z,2.60
2022-08-05T01:18:15.601Z,2.33
2022-08-05T01:22:38.352Z,2.40
2022-08-05T01:26:56.632Z,2.40
2022-08-05T01:31:04.443Z,2.43
2022-08-05T01:35:10.584Z,2.63
2022-08-05T01:39:15.699Z,2.67
2022-08-05T01:43:37.879Z,2.80
2022-08-05T01:47:45.760Z,2.90
2022-08-05T01:51:51.958Z,2.97
2022-08-05T01:56:00.081Z,2.93
2022-08-05T02:00:11.842Z,3.53
2022-08-05T02:04:18.345Z,4.10
2022-08-05T02:08:31.042Z,4.10
2022-08-05T02:12:37.712Z,3.93
2022-08-05T02:16:44.556Z,4.20
2022-08-05T02:20:52.018Z,3.87
2022-08-05T02:25:00.621Z,5.10
2022-08-05T02:29:04.037Z,5.30
2022-08-05T02:33:08.455Z,5.57
2022-08-05T02:37:15.101Z,6.37
2022-08-05T02:41:20.097Z,6.47
2022-08-05T02:45:26.517Z,6.30
2022-08-05T02:49:35.778Z,5.43
2022-08-05T02:53:41.455Z,6.70
2022-08-05T02:58:11.823Z,7.83
2022-08-05T03:02:08.039Z,8.60
2022-08-05T03:06:56.224Z,9.90
2022-08-05T03:10:34.570Z,9.07
2022-08-05T03:14:45.662Z,10.50
2022-08-05T03:18:48.763Z,10.53
2022-08-05T03:22:50.544Z,11.20
2022-08-05T03:26:53.562Z,11.30
2022-08-05T03:30:56.219Z,10.83
2022-08-05T03:34:57.984Z,10.30
2022-08-05T03:39:06.791Z,9.80
2022-08-05T03:43:58.760Z,9.87
2022-08-05T03:47:35.261Z,10.03
2022-08-05T03:52:36.629Z,9.40
2022-08-05T03:56:26.918Z,9.40
2022-08-05T04:00:33.786Z,9.43
2022-08-05T04:04:35.783Z,8.97
2022-08-05T04:08:40.178Z,8.60
2022-08-05T04:16:44.330Z,9.33
2022-08-05T04:20:53.086Z,10.40
2022-08-05T04:24:55.311Z,10.47
2022-08-05T04:28:56.842Z,10.53
2022-08-05T04:33:01.470Z,10.07
2022-08-05T04:37:03.933Z,10.10
2022-08-05T04:41:06.370Z,10.37
2022-08-05T04:45:10.262Z,9.07
2022-08-05T04:49:17.022Z,10.40
2022-08-05T04:53:26.347Z,11.50
2022-08-05T04:57:37.006Z,11.27
2022-08-05T05:02:07.624Z,10.90
2022-08-05T05:06:40.163Z,11.00
2022-08-05T05:10:24.601Z,10.80
2022-08-05T05:14:32.199Z,10.83
2022-08-05T05:18:34.304Z,11.10
2022-08-05T05:22:40.966Z,11.17
2022-08-05T05:26:42.602Z,11.40
2022-08-05T05:30:49.702Z,14.33
2022-08-05T05:34:52.414Z,15.23
2022-08-05T05:38:55.679Z,19.20
2022-08-05T05:42:57.581Z,20.37
2022-08-05T05:47:04.472Z,26.20
2022-08-05T05:51:22.122Z,24.17
2022-08-05T05:55:25.404Z,26.70
2022-08-05T05:59:47.106Z,30.30
2022-08-05T06:04:00.700Z,30.90
2022-08-05T06:08:04.360Z,32.10
2022-08-05T06:12:09.513Z,29.90
2022-08-05T06:16:30.168Z,30.07
2022-08-05T06:20:32.927Z,28.67
2022-08-05T06:24:35.908Z,29.30
2022-08-05T06:28:38.757Z,30.93
2022-08-05T06:32:42.037Z,32.37
2022-08-05T06:36:57.218Z,33.17
2022-08-05T06:41:00.277Z,32.33
2022-08-05T06:45:05.276Z,34.47
2022-08-05T06:49:09.694Z,32.73
2022-08-05T06:53:22.351Z,32.57
2022-08-05T06:57:57.652Z,31.77
2022-08-05T07:01:47.693Z,31.57
2022-08-05T07:05:54.450Z,31.97
2022-08-05T07:09:58.745Z,31.87
2022-08-05T07:14:00.453Z,30.20
2022-08-05T07:18:08.232Z,31.63
2022-08-05T07:22:11.805Z,35.30
2022-08-05T07:26:22.560Z,37.17
2022-08-05T07:30:30.722Z,37.10
2022-08-05T07:34:40.488Z,43.70
2022-08-05T07:38:44.259Z,44.40
2022-08-05T07:42:45.993Z,45.90
2022-08-05T07:46:50.262Z,43.87
2022-08-05T07:50:53.566Z,42.73
2022-08-05T07:54:55.086Z,35.47
2022-08-05T07:58:58.837Z,27.00
2022-08-05T08:03:14.063Z,21.73
2022-08-05T08:07:22.685Z,19.67
2022-08-05T08:11:27.485Z,18.63
2022-08-05T08:15:37.141Z,20.50
2022-08-05T08:20:43.615Z,21.40
2022-08-05T08:24:14.540Z,22.67
2022-08-05T08:28:18.938Z,23.27
2022-08-05T08:32:39.833Z,22.07
2022-08-05T08:36:49.015Z,24.10
2022-08-05T08:40:56.081Z,25.47
2022-08-05T08:45:20.314Z,25.87
2022-08-05T08:50:12.950Z,25.90
2022-08-05T08:53:45.451Z,26.80
2022-08-05T08:57:58.008Z,25.23
2022-08-05T09:02:01.107Z,25.77
2022-08-05T09:06:08.074Z,24.53
2022-08-05T09:10:13.321Z,24.17
2022-08-05T09:14:57.340Z,23.57
2022-08-05T09:18:42.794Z,21.33
2022-08-05T09:23:09.777Z,21.40
2022-08-05T09:28:04.480Z,17.13
2022-08-05T09:32:46.395Z,14.33
2022-08-05T09:36:55.377Z,14.63
2022-08-05T09:41:05.640Z,15.07
2022-08-05T09:46:04.567Z,12.93
2022-08-05T09:49:40.278Z,11.43
2022-08-05T09:53:59.220Z,11.17
2022-08-05T09:58:11.210Z,9.73
2022-08-05T10:02:12.806Z,8.63
2022-08-05T10:06:22.108Z,7.90
2022-08-05T10:10:32.479Z,7.10
2022-08-05T10:14:34.304Z,7.60
2022-08-05T10:18:37.420Z,6.87
2022-08-05T10:22:43.060Z,5.90
2022-08-05T10:26:52.894Z,5.07
2022-08-05T10:32:48.340Z,4.47
2022-08-05T10:35:16.711Z,4.50
2022-08-05T10:40:03.749Z,4.83
2022-08-05T10:43:50.718Z,4.17
2022-08-05T10:48:29.270Z,4.27
2022-08-05T10:52:40.277Z,4.30
2022-08-05T10:56:54.464Z,4.67
2022-08-05T11:01:03.131Z,4.57
2022-08-05T11:05:08.570Z,4.57
2022-08-05T11:09:16.593Z,4.00
2022-08-05T11:13:40.344Z,4.17
2022-08-05T11:18:09.712Z,4.20
2022-08-05T11:22:38.846Z,4.80
2022-08-05T11:26:43.810Z,5.20
2022-08-05T11:31:56.765Z,5.03
2022-08-05T11:36:07.680Z,4.67
2022-08-05T11:40:10.454Z,4.10
2022-08-05T11:44:40.237Z,4.47
2022-08-05T11:48:41.547Z,3.93
2022-08-05T11:52:44.042Z,4.30
2022-08-05T11:56:50.317Z,4.80
2022-08-05T12:01:01.120Z,4.68
2022-08-05T12:05:18.488Z,3.95
2022-08-05T12:09:24.436Z,4.25
2022-08-05T12:13:56.103Z,4.28
2022-08-05T12:18:09.898Z,3.92
2022-08-05T12:22:19.886Z,3.83
2022-08-05T12:26:23.082Z,3.92
2022-08-05T12:30:32.101Z,4.25
2022-08-05T12:34:36.491Z,3.38
2022-08-05T12:38:41.137Z,3.08
2022-08-05T12:42:42.931Z,3.53
2022-08-05T12:46:52.909Z,3.05
2022-08-05T12:51:21.675Z,3.15
2022-08-05T12:55:35.446Z,3.42
2022-08-05T13:00:09.057Z,3.70
2022-08-05T13:04:09.639Z,3.20
2022-08-05T13:08:11.891Z,3.20
2022-08-05T13:12:16.431Z,2.60
2022-08-05T13:16:19.913Z,2.47
2022-08-05T13:20:25.300Z,2.70
2022-08-05T13:24:57.156Z,2.70
2022-08-05T13:28:52.476Z,3.20
2022-08-05T13:32:54.925Z,3.25
2022-08-05T13:36:58.206Z,3.00
2022-08-05T13:41:00.174Z,2.80
2022-08-05T13:45:04.821Z,2.70
2022-08-05T13:49:10.077Z,2.60
2022-08-05T13:53:15.766Z,2.03
2022-08-05T13:57:18.315Z,2.05
2022-08-05T14:01:27.445Z,1.67
2022-08-05T14:06:04.774Z,2.45
2022-08-05T14:10:08.364Z,2.50
2022-08-05T14:14:10.292Z,2.17
2022-08-05T14:18:22.943Z,2.20
2022-08-05T14:22:30.132Z,1.73
2022-08-05T14:26:38.299Z,1.83
2022-08-05T14:30:46.357Z,2.13
2022-08-05T14:34:49.500Z,1.67
2022-08-05T14:38:54.277Z,1.70
2022-08-05T14:42:56.144Z,1.50
2022-08-05T14:46:57.884Z,1.50
2022-08-05T14:51:00.983Z,1.97
2022-08-05T14:55:05.691Z,1.70
2022-08-05T14:59:07.749Z,2.13
2022-08-05T15:03:09.661Z,2.30
2022-08-05T15:08:12.521Z,1.73
2022-08-05T15:11:51.209Z,1.50
2022-08-05T15:15:56.373Z,1.30
2022-08-05T15:19:58.055Z,1.70
2022-08-05T15:24:00.936Z,1.80
2022-08-05T15:28:02.976Z,1.70
2022-08-05T15:32:05.774Z,1.30
2022-08-05T15:36:16.740Z,1.40
2022-08-05T15:41:03.539Z,1.40
2022-08-05T15:44:42.831Z,1.50
2022-08-05T15:48:51.893Z,1.47
2022-08-05T15:53:04.141Z,1.30
2022-08-05T15:57:08.957Z,1.17
2022-08-05T16:01:17.020Z,1.20
2022-08-05T16:05:19.327Z,1.20
2022-08-05T16:09:22.367Z,1.27
2022-08-05T16:13:34.104Z,1.33
2022-08-05T16:17:36.372Z,1.37
2022-08-05T16:22:01.133Z,1.50
2022-08-05T16:26:06.840Z,1.60
2022-08-05T16:30:23.253Z,1.50
2022-08-05T16:34:28.278Z,1.30
2022-08-05T16:38:31.763Z,1.20
2022-08-05T16:42:34.013Z,1.00
2022-08-05T16:46:38.092Z,1.50
2022-08-05T16:50:42.903Z,1.40
2022-08-05T16:54:44.415Z,1.13
2022-08-05T16:58:47.407Z,1.60
2022-08-05T17:02:50.295Z,1.17
2022-08-05T17:06:53.035Z,0.93
2022-08-05T17:10:55.372Z,1.10
2022-08-05T17:14:57.078Z,1.40
2022-08-05T17:19:01.419Z,0.93
2022-08-05T17:23:02.973Z,0.93
2022-08-05T17:27:04.483Z,0.97
2022-08-05T17:31:08.248Z,0.90
2022-08-05T17:35:15.479Z,0.90
2022-08-05T17:39:24.312Z,0.90
2022-08-05T17:43:47.208Z,1.00
2022-08-05T17:47:56.271Z,1.00
2022-08-05T17:51:59.439Z,0.80
2022-08-05T17:56:02.862Z,0.77
2022-08-05T18:00:06.131Z,0.90
2022-08-05T18:04:11.957Z,1.00
2022-08-05T18:08:15.315Z,0.87
2022-08-05T18:12:22.233Z,0.87
2022-08-05T18:16:25.787Z,1.13
2022-08-05T18:20:29.420Z,0.87
2022-08-05T18:24:35.083Z,1.00
2022-08-05T18:28:38.503Z,0.80
2022-08-05T18:32:40.473Z,0.90
2022-08-05T18:36:55.243Z,0.83
2022-08-05T18:41:57.288Z,0.93
2022-08-05T18:45:20.791Z,0.80
2022-08-05T18:49:22.306Z,1.00
2022-08-05T18:53:25.230Z,0.87
2022-08-05T18:57:31.159Z,1.03
2022-08-05T19:01:47.939Z,1.07
2022-08-05T19:06:13.575Z,0.80
2022-08-05T19:10:28.190Z,0.80
2022-08-05T19:14:37.780Z,0.90
2022-08-05T19:18:56.503Z,0.90
2022-08-05T19:22:58.758Z,0.90
2022-08-05T19:27:00.450Z,0.93
2022-08-05T19:31:07.291Z,1.07
2022-08-05T19:35:09.637Z,0.93
2022-08-05T19:39:11.513Z,0.80
2022-08-05T19:44:03.855Z,0.83
2022-08-05T19:47:41.584Z,1.00
2022-08-05T19:52:08.446Z,0.90
2022-08-05T19:56:15.165Z,0.90
2022-08-05T20:00:27.396Z,0.70
2022-08-05T20:04:30.548Z,0.73
2022-08-05T20:08:32.471Z,0.80
2022-08-05T20:12:34.408Z,0.73
2022-08-05T20:16:36.178Z,1.00
2022-08-05T20:20:43.895Z,0.70
2022-08-05T20:24:46.450Z,0.83
2022-08-05T20:28:49.256Z,1.00
2022-08-05T20:32:53.115Z,1.03
2022-08-05T20:36:55.967Z,0.97
2022-08-05T20:40:57.526Z,0.93
2022-08-05T20:44:59.187Z,1.00
2022-08-05T20:49:02.486Z,0.80
2022-08-05T20:53:16.021Z,0.80
2022-08-05T20:57:43.868Z,1.03
2022-08-05T21:01:46.390Z,0.90
2022-08-05T21:05:54.581Z,0.80
2022-08-05T21:09:57.914Z,0.90
2022-08-05T21:13:59.644Z,0.80
2022-08-05T21:18:01.391Z,0.80
2022-08-05T21:22:03.196Z,1.20
2022-08-05T21:26:08.118Z,0.90
2022-08-05T21:30:17.562Z,1.10
2022-08-05T21:34:19.311Z,1.70
2022-08-05T21:38:21.253Z,1.00
2022-08-05T21:42:41.072Z,1.10
2022-08-05T21:46:45.507Z,1.40
2022-08-05T21:50:54.109Z,1.10
2022-08-05T21:54:56.564Z,1.20
2022-08-05T21:58:59.900Z,1.20
2022-08-05T22:03:09.925Z,1.30
2022-08-05T22:07:11.946Z,1.10
2022-08-05T22:11:15.546Z,1.10
2022-08-05T22:16:02.036Z,0.90
2022-08-05T22:19:57.512Z,1.10
2022-08-05T22:24:09.135Z,1.10
2022-08-05T22:28:14.644Z,1.13
2022-08-05T22:32:21.306Z,1.20
2022-08-05T22:36:25.042Z,1.10
2022-08-05T22:40:26.683Z,1.00
2022-08-05T22:44:32.358Z,1.10
2022-08-05T22:48:35.348Z,1.07
2022-08-05T22:52:37.403Z,1.00
2022-08-05T22:56:39.999Z,1.03
2022-08-05T23:00:42.096Z,1.00
2022-08-05T23:04:52.132Z,1.27
2022-08-05T23:08:54.095Z,1.10
2022-08-05T23:12:56.098Z,1.03
2022-08-05T23:16:57.887Z,0.97
2022-08-05T23:21:02.813Z,1.13
2022-08-05T23:25:05.441Z,1.07
2022-08-05T23:29:10.001Z,1.20
2022-08-05T23:33:22.476Z,1.30
2022-08-05T23:37:36.449Z,1.20
2022-08-05T23:41:41.047Z,1.33
2022-08-05T23:45:50.141Z,1.20
2022-08-05T23:49:56.336Z,1.20
2022-08-05T23:54:00.919Z,1.10
2022-08-05T23:58:03.354Z,1.00
